createdAt,value
2023-05-20T00:01:10.591Z,83.36
2023-05-20T00:03:39.140Z,83.36
2023-05-20T00:06:07.861Z,83.51
2023-05-20T00:08:36.349Z,83.47
2023-05-20T00:11:04.615Z,83.64
2023-05-20T00:13:33.092Z,83.80
2023-05-20T00:16:01.495Z,83.93
2023-05-20T00:18:29.974Z,84.07
2023-05-20T00:20:59.145Z,84.08
2023-05-20T00:23:27.317Z,84.23
2023-05-20T00:25:56.281Z,84.19
2023-05-20T00:28:25.707Z,84.28
2023-05-20T00:30:54.987Z,84.31
2023-05-20T00:33:23.278Z,84.41
2023-05-20T00:35:51.562Z,84.59
2023-05-20T00:38:20.041Z,84.83
2023-05-20T00:40:48.521Z,84.87
2023-05-20T00:43:16.699Z,84.80
2023-05-20T00:45:44.996Z,84.82
2023-05-20T00:48:13.768Z,85.08
2023-05-20T00:50:42.124Z,85.04
2023-05-20T00:53:10.616Z,85.30
2023-05-20T00:55:38.820Z,85.33
2023-05-20T00:58:07.050Z,85.33
2023-05-20T01:00:35.941Z,85.36
2023-05-20T01:03:04.330Z,85.41
2023-05-20T01:05:32.878Z,85.54
2023-05-20T01:08:01.691Z,85.65
2023-05-20T01:10:30.878Z,85.87
2023-05-20T01:13:02.962Z,85.85
2023-05-20T01:15:31.937Z,85.96
2023-05-20T01:18:02.724Z,86.10
2023-05-20T01:20:32.801Z,86.23
2023-05-20T01:23:01.689Z,86.11
2023-05-20T01:25:30.149Z,86.27
2023-05-20T01:27:58.428Z,86.39
2023-05-20T01:30:31.230Z,86.37
2023-05-20T01:33:03.041Z,86.60
2023-05-20T01:35:32.374Z,86.65
2023-05-20T01:38:01.775Z,86.85
2023-05-20T01:40:31.063Z,86.83
2023-05-20T01:42:59.550Z,86.88
2023-05-20T01:45:27.815Z,86.87
2023-05-20T01:47:56.242Z,87.15
2023-05-20T01:50:24.687Z,87.13
2023-05-20T01:52:52.966Z,87.06
2023-05-20T01:55:21.227Z,87.24
2023-05-20T01:57:49.601Z,87.41
2023-05-20T02:00:17.874Z,87.49
2023-05-20T02:02:46.246Z,87.57
2023-05-20T02:05:14.937Z,87.66
2023-05-20T02:07:44.748Z,87.74
2023-05-20T02:10:14.048Z,87.74
2023-05-20T02:12:43.044Z,87.90
2023-05-20T02:15:11.417Z,87.86
2023-05-20T02:17:40.013Z,88.04
2023-05-20T02:20:08.919Z,87.90
2023-05-20T02:22:37.168Z,88.10
2023-05-20T02:25:06.169Z,88.25
2023-05-20T02:27:34.444Z,88.35
2023-05-20T02:30:02.820Z,88.25
2023-05-20T02:32:31.184Z,88.28
2023-05-20T02:35:00.997Z,88.42
2023-05-20T02:37:29.881Z,88.56
2023-05-20T02:39:58.266Z,88.54
2023-05-20T02:42:26.641Z,88.68
2023-05-20T02:44:58.711Z,88.70
2023-05-20T02:47:27.633Z,88.65
2023-05-20T02:49:56.173Z,88.77
2023-05-20T02:52:24.347Z,89.00
2023-05-20T02:54:53.239Z,89.06
2023-05-20T02:57:21.615Z,88.90
2023-05-20T02:59:50.013Z,88.96
2023-05-20T03:02:18.463Z,89.15
2023-05-20T03:04:47.645Z,89.34
2023-05-20T03:07:19.888Z,89.44
2023-05-20T03:09:48.418Z,89.42
2023-05-20T03:12:16.800Z,89.41
2023-05-20T03:14:45.778Z,89.50
2023-05-20T03:17:14.887Z,89.50
2023-05-20T03:19:44.378Z,89.63
2023-05-20T03:22:12.960Z,89.51
2023-05-20T03:24:42.666Z,89.58
2023-05-20T03:27:10.842Z,89.53
2023-05-20T03:29:39.521Z,89.61
2023-05-20T03:32:10.649Z,89.88
2023-05-20T03:34:39.608Z,89.75
2023-05-20T03:37:08.440Z,89.80
2023-05-20T03:39:36.932Z,90.07
2023-05-20T03:42:05.818Z,90.01
2023-05-20T03:44:34.600Z,90.11
2023-05-20T03:47:04.052Z,90.08
2023-05-20T03:49:32.676Z,90.13
2023-05-20T03:52:00.953Z,90.35
2023-05-20T03:54:30.358Z,90.27
2023-05-20T03:57:01.298Z,90.48
2023-05-20T03:59:29.873Z,90.44
2023-05-20T04:01:58.159Z,90.25
2023-05-20T04:04:26.635Z,90.39
2023-05-20T04:06:54.898Z,90.31
2023-05-20T04:09:23.588Z,90.54
2023-05-20T04:11:51.763Z,90.43
2023-05-20T04:14:20.033Z,90.51
2023-05-20T04:16:50.445Z,90.59
2023-05-20T04:19:22.019Z,90.73
2023-05-20T04:21:50.798Z,90.73
2023-05-20T04:24:19.179Z,90.77
2023-05-20T04:26:48.495Z,90.81
2023-05-20T04:29:16.854Z,90.80
2023-05-20T04:31:48.089Z,90.91
2023-05-20T04:34:19.852Z,91.01
2023-05-20T04:36:49.264Z,90.92
2023-05-20T04:39:19.369Z,90.89
2023-05-20T04:41:49.591Z,90.98
2023-05-20T04:44:18.174Z,91.01
2023-05-20T04:46:46.447Z,91.08
2023-05-20T04:49:16.154Z,91.20
2023-05-20T04:51:45.148Z,91.07
2023-05-20T04:54:14.137Z,90.95
2023-05-20T04:56:42.309Z,90.91
2023-05-20T04:59:10.891Z,90.89
2023-05-20T05:01:39.208Z,90.82
2023-05-20T05:04:07.896Z,90.85
2023-05-20T05:06:37.149Z,90.87
2023-05-20T05:09:05.833Z,90.92
2023-05-20T05:11:34.315Z,91.13
2023-05-20T05:14:02.591Z,91.11
2023-05-20T05:16:31.614Z,91.06
2023-05-20T05:19:00.113Z,90.94
2023-05-20T05:21:29.562Z,90.84
2023-05-20T05:23:58.543Z,90.82
2023-05-20T05:26:26.937Z,91.08
2023-05-20T05:28:55.924Z,90.80
2023-05-20T05:31:24.199Z,90.73
2023-05-20T05:33:52.480Z,90.93
2023-05-20T05:36:20.855Z,90.92
2023-05-20T05:38:49.128Z,90.78
2023-05-20T05:41:17.296Z,90.97
2023-05-20T05:43:46.089Z,90.78
2023-05-20T05:46:14.898Z,90.82
2023-05-20T05:48:45.498Z,90.95
2023-05-20T05:51:13.670Z,90.82
2023-05-20T05:53:42.557Z,90.70
2023-05-20T05:56:11.348Z,90.58
2023-05-20T05:58:39.828Z,90.51
2023-05-20T06:01:08.414Z,90.45
2023-05-20T06:03:36.853Z,90.35
2023-05-20T06:06:05.366Z,90.57
2023-05-20T06:08:34.972Z,90.57
2023-05-20T06:11:03.244Z,90.59
2023-05-20T06:13:32.447Z,90.58
2023-05-20T06:16:00.833Z,90.33
2023-05-20T06:18:29.095Z,90.22
2023-05-20T06:21:03.520Z,90.17
2023-05-20T06:23:31.996Z,90.05
2023-05-20T06:26:03.764Z,90.00
2023-05-20T06:28:32.125Z,90.00
2023-05-20T06:31:00.825Z,89.92
2023-05-20T06:33:32.564Z,89.77
2023-05-20T06:36:04.425Z,89.67
2023-05-20T06:38:32.802Z,89.71
2023-05-20T06:41:01.497Z,89.75
2023-05-20T06:43:30.479Z,89.82
2023-05-20T06:46:07.175Z,89.54
2023-05-20T06:48:38.808Z,89.49
2023-05-20T06:51:11.610Z,89.47
2023-05-20T06:53:40.492Z,89.37
2023-05-20T06:56:08.954Z,89.26
2023-05-20T06:58:37.226Z,89.27
2023-05-20T07:01:06.020Z,89.23
2023-05-20T07:03:34.718Z,89.38
2023-05-20T07:06:03.488Z,89.48
2023-05-20T07:08:32.474Z,89.17
2023-05-20T07:11:00.962Z,88.88
2023-05-20T07:13:31.378Z,88.76
2023-05-20T07:16:00.220Z,88.82
2023-05-20T07:18:29.054Z,88.51
2023-05-20T07:20:58.458Z,88.50
2023-05-20T07:23:49.770Z,88.25
2023-05-20T07:26:18.657Z,88.10
2023-05-20T07:28:47.443Z,87.83
2023-05-20T07:31:17.311Z,87.68
2023-05-20T07:33:46.348Z,87.86
2023-05-20T07:36:15.247Z,87.75
2023-05-20T07:39:00.934Z,87.55
2023-05-20T07:41:32.268Z,87.39
2023-05-20T07:44:03.545Z,87.27
2023-05-20T07:46:33.135Z,87.52
2023-05-20T07:49:01.598Z,87.63
2023-05-20T07:51:30.078Z,87.64
2023-05-20T07:53:59.176Z,87.53
2023-05-20T07:56:28.573Z,87.60
2023-05-20T07:58:58.801Z,87.44
2023-05-20T08:01:30.553Z,87.49
2023-05-20T08:03:59.042Z,87.32
2023-05-20T08:06:29.552Z,87.07
2023-05-20T08:08:59.217Z,87.08
2023-05-20T08:11:31.531Z,86.97
2023-05-20T08:14:00.935Z,86.81
2023-05-20T08:16:31.299Z,87.03
2023-05-20T08:18:59.801Z,87.09
2023-05-20T08:21:28.930Z,86.88
2023-05-20T08:23:57.203Z,86.76
2023-05-20T08:26:25.582Z,86.61
2023-05-20T08:28:53.961Z,86.43
2023-05-20T08:31:22.680Z,86.39
2023-05-20T08:33:51.941Z,86.48
2023-05-20T08:36:20.118Z,86.13
2023-05-20T08:38:49.219Z,86.14
2023-05-20T08:41:18.097Z,86.15
2023-05-20T08:43:47.719Z,86.13
2023-05-20T08:46:18.170Z,86.08
2023-05-20T08:48:47.126Z,85.94
2023-05-20T08:51:16.828Z,85.55
2023-05-20T08:53:45.002Z,85.31
2023-05-20T08:56:13.589Z,85.16
2023-05-20T08:58:43.400Z,84.76
2023-05-20T09:01:11.671Z,84.56
2023-05-20T09:03:39.840Z,84.29
2023-05-20T09:06:09.551Z,83.84
2023-05-20T09:08:37.927Z,83.83
2023-05-20T09:11:06.612Z,83.71
2023-05-20T09:13:34.821Z,83.38
2023-05-20T09:16:03.656Z,83.51
2023-05-20T09:18:32.359Z,83.28
2023-05-20T09:21:06.579Z,83.25
2023-05-20T09:23:38.274Z,83.13
2023-05-20T09:26:07.117Z,82.74
2023-05-20T09:28:38.554Z,82.33
2023-05-20T09:31:07.655Z,82.25
2023-05-20T09:33:37.364Z,82.33
2023-05-20T09:36:08.772Z,82.26
2023-05-20T09:38:39.906Z,82.01
2023-05-20T09:41:11.786Z,81.85
2023-05-20T09:43:41.107Z,81.66
2023-05-20T09:46:09.557Z,81.49
2023-05-20T09:48:38.293Z,81.23
2023-05-20T09:51:08.192Z,80.93
2023-05-20T09:53:37.083Z,80.62
2023-05-20T09:56:06.177Z,80.74
2023-05-20T09:58:36.402Z,80.97
2023-05-20T10:01:07.279Z,81.11
2023-05-20T10:03:36.302Z,80.65
2023-05-20T10:06:10.636Z,79.96
2023-05-20T10:08:57.018Z,79.71
2023-05-20T10:11:39.035Z,79.55
2023-05-20T10:14:09.970Z,79.18
2023-05-20T10:16:52.229Z,78.44
2023-05-20T10:19:33.613Z,77.71
2023-05-20T10:22:06.544Z,77.51
2023-05-20T10:24:41.875Z,76.87
2023-05-20T10:27:12.970Z,76.42
2023-05-20T10:29:53.083Z,75.88
2023-05-20T10:32:28.814Z,75.67
2023-05-20T10:35:05.519Z,75.20
2023-05-20T10:37:42.154Z,74.76
2023-05-20T10:40:14.454Z,73.89
2023-05-20T10:42:43.478Z,73.99
2023-05-20T10:45:12.516Z,73.77
2023-05-20T10:47:56.472Z,73.99
2023-05-20T10:50:43.062Z,73.15
2023-05-20T10:53:25.635Z,73.16
2023-05-20T10:56:01.367Z,72.49
2023-05-20T10:58:37.656Z,72.14
2023-05-20T11:01:05.978Z,70.81
2023-05-20T11:03:35.886Z,70.18
2023-05-20T11:06:12.439Z,69.39
2023-05-20T11:08:41.023Z,68.54
2023-05-20T11:11:10.751Z,67.71
2023-05-20T11:13:39.111Z,66.41
2023-05-20T11:16:07.591Z,65.83
2023-05-20T11:18:36.695Z,65.01
2023-05-20T11:21:04.974Z,64.41
2023-05-20T11:23:33.876Z,63.99
2023-05-20T11:26:02.747Z,63.63
2023-05-20T11:28:33.321Z,63.49
2023-05-20T11:31:01.856Z,63.50
2023-05-20T11:33:30.844Z,63.80
2023-05-20T11:35:59.320Z,63.18
2023-05-20T11:38:28.208Z,63.05
2023-05-20T11:40:56.908Z,61.64
2023-05-20T11:43:25.587Z,60.43
2023-05-20T11:45:56.433Z,60.09
2023-05-20T11:48:24.991Z,59.32
2023-05-20T11:50:56.754Z,58.87
2023-05-20T11:53:25.472Z,58.13
2023-05-20T11:55:56.109Z,58.49
2023-05-20T11:58:29.586Z,58.52
2023-05-20T12:01:05.640Z,58.74
2023-05-20T12:03:37.914Z,58.85
2023-05-20T12:06:06.673Z,58.16
2023-05-20T12:08:34.837Z,58.56
2023-05-20T12:11:03.113Z,57.86
2023-05-20T12:13:32.170Z,57.72
2023-05-20T12:16:02.035Z,57.08
2023-05-20T12:18:30.295Z,57.07
2023-05-20T12:21:01.435Z,56.73
2023-05-20T12:23:34.282Z,55.22
2023-05-20T12:26:02.808Z,54.97
2023-05-20T12:28:32.410Z,54.65
2023-05-20T12:31:01.207Z,54.38
2023-05-20T12:33:29.576Z,53.55
2023-05-20T12:35:58.153Z,53.57
2023-05-20T12:38:26.424Z,53.79
2023-05-20T12:40:54.696Z,53.06
2023-05-20T12:43:22.976Z,52.21
2023-05-20T12:45:52.592Z,51.94
2023-05-20T12:48:20.750Z,52.11
2023-05-20T12:50:49.128Z,51.22
2023-05-20T12:53:17.403Z,50.94
2023-05-20T12:55:45.677Z,50.79
2023-05-20T12:58:14.056Z,50.59
2023-05-20T13:00:42.476Z,50.27
2023-05-20T13:03:11.620Z,50.03
2023-05-20T13:05:40.003Z,49.90
2023-05-20T13:08:10.325Z,49.04
2023-05-20T13:10:38.919Z,48.02
2023-05-20T13:13:07.188Z,47.95
2023-05-20T13:15:35.867Z,48.01
2023-05-20T13:18:06.907Z,47.27
2023-05-20T13:20:35.638Z,47.09
2023-05-20T13:23:04.186Z,46.54
2023-05-20T13:25:32.448Z,46.41
2023-05-20T13:28:01.133Z,46.38
2023-05-20T13:30:29.924Z,45.93
2023-05-20T13:32:58.329Z,45.97
2023-05-20T13:35:26.576Z,45.90
2023-05-20T13:37:54.740Z,45.36
2023-05-20T13:40:23.035Z,45.74
2023-05-20T13:42:51.240Z,45.70
2023-05-20T13:45:19.571Z,44.44
2023-05-20T13:47:47.795Z,44.18
2023-05-20T13:50:16.859Z,44.55
2023-05-20T13:52:45.112Z,44.80
2023-05-20T13:55:13.484Z,44.89
2023-05-20T13:57:42.579Z,45.08
2023-05-20T14:00:11.314Z,45.31
2023-05-20T14:02:39.622Z,45.60
2023-05-20T14:05:08.422Z,45.23
2023-05-20T14:07:36.805Z,45.56
2023-05-20T14:10:06.675Z,45.62
2023-05-20T14:12:34.883Z,45.90
2023-05-20T14:15:03.165Z,45.94
2023-05-20T14:17:31.478Z,45.46
2023-05-20T14:20:00.834Z,45.47
2023-05-20T14:22:29.111Z,45.57
2023-05-20T14:24:57.288Z,45.37
2023-05-20T14:27:25.871Z,44.79
2023-05-20T14:29:54.139Z,44.49
2023-05-20T14:32:22.466Z,44.25
2023-05-20T14:34:52.550Z,44.39
2023-05-20T14:37:20.705Z,44.40
2023-05-20T14:39:49.081Z,44.46
2023-05-20T14:42:17.263Z,44.04
2023-05-20T14:44:46.196Z,43.93
2023-05-20T14:47:19.332Z,44.15
2023-05-20T14:49:47.855Z,44.07
2023-05-20T14:52:17.639Z,44.87
2023-05-20T14:54:46.330Z,45.33
2023-05-20T14:57:16.169Z,44.98
2023-05-20T14:59:44.596Z,45.29
2023-05-20T15:02:15.452Z,45.23
2023-05-20T15:04:46.782Z,44.94
2023-05-20T15:07:15.770Z,44.65
2023-05-20T15:09:44.253Z,44.27
2023-05-20T15:12:12.528Z,43.89
2023-05-20T15:14:41.012Z,43.41
2023-05-20T15:17:09.401Z,43.48
2023-05-20T15:19:41.429Z,43.96
2023-05-20T15:22:09.956Z,44.30
2023-05-20T15:24:38.201Z,44.79
2023-05-20T15:27:06.678Z,45.02
2023-05-20T15:29:34.952Z,45.01
2023-05-20T15:32:03.442Z,44.43
2023-05-20T15:34:31.914Z,44.43
2023-05-20T15:37:00.200Z,44.04
2023-05-20T15:39:28.669Z,44.02
2023-05-20T15:41:59.616Z,43.46
2023-05-20T15:44:29.315Z,42.85
2023-05-20T15:46:57.490Z,42.37
2023-05-20T15:49:25.862Z,42.16
2023-05-20T15:52:02.822Z,42.70
2023-05-20T15:54:33.176Z,42.60
2023-05-20T15:57:02.818Z,42.61
2023-05-20T15:59:31.250Z,43.36
2023-05-20T16:01:59.483Z,43.99
2023-05-20T16:04:28.024Z,44.55
2023-05-20T16:06:56.897Z,44.86
2023-05-20T16:09:25.179Z,45.85
2023-05-20T16:11:53.651Z,45.97
2023-05-20T16:14:21.922Z,46.62
2023-05-20T16:16:50.327Z,46.69
2023-05-20T16:19:18.728Z,47.00
2023-05-20T16:21:47.058Z,47.28
2023-05-20T16:24:16.404Z,48.10
2023-05-20T16:26:44.735Z,48.59
2023-05-20T16:29:14.345Z,49.13
2023-05-20T16:31:46.960Z,49.52
2023-05-20T16:34:16.721Z,49.92
2023-05-20T16:36:45.828Z,50.43
2023-05-20T16:39:15.057Z,50.66
2023-05-20T16:41:44.101Z,50.75
2023-05-20T16:44:12.395Z,51.14
2023-05-20T16:46:40.874Z,51.07
2023-05-20T16:49:09.135Z,51.28
2023-05-20T16:51:37.512Z,51.30
2023-05-20T16:54:06.092Z,51.51
2023-05-20T16:56:35.597Z,51.80
2023-05-20T16:59:03.769Z,52.20
2023-05-20T17:01:32.197Z,52.37
2023-05-20T17:04:00.738Z,52.77
2023-05-20T17:06:29.102Z,52.86
2023-05-20T17:08:57.785Z,53.21
2023-05-20T17:11:26.367Z,53.46
2023-05-20T17:13:54.658Z,53.67
2023-05-20T17:16:23.059Z,53.87
2023-05-20T17:18:51.519Z,54.15
2023-05-20T17:21:23.066Z,54.42
2023-05-20T17:23:51.450Z,54.85
2023-05-20T17:26:19.913Z,55.11
2023-05-20T17:28:48.180Z,55.41
2023-05-20T17:31:16.776Z,55.50
2023-05-20T17:33:45.060Z,55.74
2023-05-20T17:36:14.242Z,56.05
2023-05-20T17:38:42.415Z,56.60
2023-05-20T17:41:10.783Z,57.00
2023-05-20T17:43:39.059Z,57.27
2023-05-20T17:46:07.497Z,57.42
2023-05-20T17:48:37.042Z,57.50
2023-05-20T17:51:05.933Z,57.82
2023-05-20T17:53:34.204Z,58.12
2023-05-20T17:56:02.375Z,58.44
2023-05-20T17:58:31.786Z,58.72
2023-05-20T18:01:00.285Z,58.97
2023-05-20T18:03:29.474Z,59.38
2023-05-20T18:05:57.830Z,59.93
2023-05-20T18:08:26.417Z,60.42
2023-05-20T18:10:54.697Z,60.95
2023-05-20T18:13:23.272Z,61.52
2023-05-20T18:15:52.868Z,62.03
2023-05-20T18:18:21.256Z,62.50
2023-05-20T18:20:49.425Z,62.90
2023-05-20T18:23:17.713Z,63.25
2023-05-20T18:25:46.490Z,63.64
2023-05-20T18:28:14.878Z,64.05
2023-05-20T18:30:43.140Z,64.32
2023-05-20T18:33:11.551Z,64.78
2023-05-20T18:35:39.904Z,65.25
2023-05-20T18:38:08.171Z,65.55
2023-05-20T18:40:37.048Z,65.87
2023-05-20T18:43:05.636Z,66.24
2023-05-20T18:45:34.026Z,66.65
2023-05-20T18:48:02.430Z,67.05
2023-05-20T18:50:31.126Z,67.42
2023-05-20T18:52:59.358Z,67.83
2023-05-20T18:55:28.452Z,68.21
2023-05-20T18:57:56.821Z,68.37
2023-05-20T19:00:25.510Z,68.85
2023-05-20T19:02:53.889Z,69.30
2023-05-20T19:05:23.335Z,69.64
2023-05-20T19:07:51.666Z,69.99
2023-05-20T19:10:19.875Z,70.33
2023-05-20T19:12:48.109Z,70.59
2023-05-20T19:15:16.996Z,71.10
2023-05-20T19:17:45.178Z,71.47
2023-05-20T19:20:14.572Z,71.79
2023-05-20T19:22:42.841Z,72.04
2023-05-20T19:25:11.737Z,72.36
2023-05-20T19:27:40.004Z,72.70
2023-05-20T19:30:10.894Z,72.95
2023-05-20T19:32:39.890Z,73.13
2023-05-20T19:35:08.823Z,73.31
2023-05-20T19:37:36.993Z,73.56
2023-05-20T19:40:06.822Z,73.86
2023-05-20T19:42:35.182Z,74.12
2023-05-20T19:45:03.866Z,74.44
2023-05-20T19:47:32.202Z,74.53
2023-05-20T19:50:00.517Z,74.83
2023-05-20T19:52:28.902Z,75.01
2023-05-20T19:54:57.178Z,75.16
2023-05-20T19:57:26.170Z,75.37
2023-05-20T19:59:54.444Z,75.67
2023-05-20T20:02:22.749Z,75.89
2023-05-20T20:04:52.122Z,76.07
2023-05-20T20:07:20.898Z,76.28
2023-05-20T20:09:51.835Z,76.40
2023-05-20T20:12:20.110Z,76.97
2023-05-20T20:14:48.408Z,77.13
2023-05-20T20:17:17.714Z,77.32
2023-05-20T20:19:48.830Z,77.50
2023-05-20T20:22:17.520Z,77.58
2023-05-20T20:24:45.696Z,77.67
2023-05-20T20:27:13.957Z,77.71
2023-05-20T20:29:42.339Z,78.04
2023-05-20T20:32:11.272Z,78.21
2023-05-20T20:34:39.600Z,78.29
2023-05-20T20:37:07.778Z,78.59
2023-05-20T20:39:37.392Z,78.76
2023-05-20T20:42:06.889Z,78.86
2023-05-20T20:44:35.165Z,79.02
2023-05-20T20:47:04.705Z,79.08
2023-05-20T20:49:33.654Z,79.34
2023-05-20T20:52:02.247Z,79.48
2023-05-20T20:54:30.511Z,79.64
2023-05-20T20:57:00.319Z,79.81
2023-05-20T20:59:29.114Z,79.84
2023-05-20T21:01:58.424Z,80.14
2023-05-20T21:04:28.102Z,80.36
2023-05-20T21:06:56.592Z,80.36
2023-05-20T21:09:24.798Z,80.45
2023-05-20T21:11:52.938Z,80.69
2023-05-20T21:14:21.109Z,80.79
2023-05-20T21:16:49.354Z,81.01
2023-05-20T21:19:17.701Z,81.41
2023-05-20T21:21:46.043Z,81.43
2023-05-20T21:24:14.328Z,81.37
2023-05-20T21:26:42.486Z,81.25
2023-05-20T21:29:12.292Z,81.36
2023-05-20T21:31:40.584Z,81.53
2023-05-20T21:34:08.946Z,81.44
2023-05-20T21:36:37.440Z,81.47
2023-05-20T21:39:05.805Z,81.86
2023-05-20T21:41:33.974Z,82.11
2023-05-20T21:44:02.154Z,82.12
2023-05-20T21:46:30.651Z,82.26
2023-05-20T21:48:58.908Z,82.47
2023-05-20T21:51:27.198Z,82.62
2023-05-20T21:53:55.351Z,82.92
2023-05-20T21:56:23.827Z,83.19
2023-05-20T21:58:51.999Z,83.48
2023-05-20T22:01:20.209Z,83.29
2023-05-20T22:03:51.285Z,83.18
2023-05-20T22:06:21.568Z,83.28
2023-05-20T22:08:49.911Z,83.21
2023-05-20T22:11:19.967Z,83.43
2023-05-20T22:13:48.304Z,83.56
2023-05-20T22:16:16.944Z,83.41
2023-05-20T22:18:48.092Z,83.55
2023-05-20T22:21:16.817Z,83.60
2023-05-20T22:23:44.991Z,83.80
2023-05-20T22:26:13.266Z,83.88
2023-05-20T22:28:41.637Z,83.88
2023-05-20T22:31:09.963Z,84.08
2023-05-20T22:33:41.615Z,84.35
2023-05-20T22:36:10.055Z,84.42
2023-05-20T22:38:38.319Z,84.28
2023-05-20T22:41:06.504Z,84.76
2023-05-20T22:43:36.003Z,84.64
2023-05-20T22:46:04.230Z,84.83
2023-05-20T22:48:32.442Z,84.95
2023-05-20T22:51:01.561Z,85.40
2023-05-20T22:53:30.032Z,85.15
2023-05-20T22:56:00.195Z,84.98
2023-05-20T22:58:29.953Z,85.03
2023-05-20T23:00:59.850Z,85.13
2023-05-20T23:03:28.852Z,85.19
2023-05-20T23:05:57.127Z,85.32
2023-05-20T23:08:25.408Z,85.31
2023-05-20T23:10:53.571Z,85.50
2023-05-20T23:13:21.846Z,85.58
2023-05-20T23:15:50.427Z,85.73
2023-05-20T23:18:18.916Z,86.32
2023-05-20T23:20:47.896Z,86.50
2023-05-20T23:23:16.567Z,86.09
2023-05-20T23:25:46.327Z,86.07
2023-05-20T23:28:14.675Z,86.08
2023-05-20T23:30:42.948Z,86.35
2023-05-20T23:33:11.315Z,86.65
2023-05-20T23:35:39.601Z,87.70
2023-05-20T23:38:07.968Z,87.48
2023-05-20T23:40:36.461Z,87.29
2023-05-20T23:43:04.829Z,86.94
2023-05-20T23:45:33.138Z,87.17
2023-05-20T23:48:01.950Z,87.61
2023-05-20T23:50:30.269Z,87.68
2023-05-20T23:52:59.972Z,87.68
2023-05-20T23:55:32.036Z,87.84
2023-05-20T23:58:00.311Z,87.75
